createdAt,value
2022-11-21T00:00:51.448Z,3.70
2022-11-21T00:03:18.380Z,3.70
2022-11-21T00:05:46.706Z,3.70
2022-11-21T00:08:15.719Z,3.70
2022-11-21T00:10:43.279Z,3.70
2022-11-21T00:13:28.171Z,3.70
2022-11-21T00:15:54.840Z,3.70
2022-11-21T00:18:21.593Z,3.60
2022-11-21T00:20:48.241Z,3.70
2022-11-21T00:23:14.906Z,3.70
2022-11-21T00:25:41.554Z,3.70
2022-11-21T00:28:08.208Z,3.70
2022-11-21T00:30:35.721Z,3.70
2022-11-21T00:33:02.428Z,3.70
2022-11-21T00:35:30.444Z,3.80
2022-11-21T00:37:57.174Z,3.80
2022-11-21T00:40:23.808Z,3.80
2022-11-21T00:42:50.525Z,3.80
2022-11-21T00:45:22.734Z,3.80
2022-11-21T00:47:50.877Z,3.80
2022-11-21T00:50:17.582Z,3.80
2022-11-21T00:52:44.371Z,3.90
2022-11-21T00:55:11.046Z,3.90
2022-11-21T00:57:37.815Z,3.90
2022-11-21T01:00:05.765Z,3.80
2022-11-21T01:02:33.086Z,3.90
2022-11-21T01:04:59.729Z,3.90
2022-11-21T01:07:26.435Z,3.90
2022-11-21T01:09:53.132Z,3.90
2022-11-21T01:12:19.842Z,3.90
2022-11-21T01:14:46.537Z,3.90
2022-11-21T01:17:13.261Z,3.90
2022-11-21T01:19:40.071Z,3.90
2022-11-21T01:22:06.924Z,3.90
2022-11-21T01:24:33.601Z,3.90
2022-11-21T01:27:00.255Z,3.90
2022-11-21T01:29:28.013Z,3.90
2022-11-21T01:31:54.948Z,4.00
2022-11-21T01:34:22.600Z,4.00
2022-11-21T01:36:49.243Z,3.90
2022-11-21T01:39:15.914Z,3.90
2022-11-21T01:41:45.052Z,3.90
2022-11-21T01:44:20.446Z,3.90
2022-11-21T01:46:48.479Z,3.90
2022-11-21T01:49:20.068Z,3.80
2022-11-21T01:52:01.343Z,3.80
2022-11-21T01:54:34.051Z,3.80
2022-11-21T01:57:26.830Z,3.80
2022-11-21T02:00:09.430Z,3.90
2022-11-21T02:02:39.371Z,3.90
2022-11-21T02:05:08.968Z,4.00
2022-11-21T02:07:40.913Z,4.00
2022-11-21T02:10:09.049Z,4.00
2022-11-21T02:12:39.753Z,4.00
2022-11-21T02:15:07.231Z,4.10
2022-11-21T02:17:33.990Z,4.10
2022-11-21T02:20:03.743Z,4.10
2022-11-21T02:22:42.376Z,4.10
2022-11-21T02:25:14.284Z,4.10
2022-11-21T02:27:41.144Z,4.00
2022-11-21T02:30:09.901Z,4.10
2022-11-21T02:32:42.212Z,4.10
2022-11-21T02:35:09.322Z,4.00
2022-11-21T02:37:37.227Z,4.00
2022-11-21T02:40:09.866Z,4.00
2022-11-21T02:42:55.825Z,3.90
2022-11-21T02:45:31.976Z,3.90
2022-11-21T02:48:03.607Z,3.90
2022-11-21T02:50:33.411Z,4.00
2022-11-21T02:53:00.506Z,4.00
2022-11-21T02:55:27.792Z,4.00
2022-11-21T02:57:54.681Z,4.00
2022-11-21T03:00:21.992Z,4.00
2022-11-21T03:02:48.702Z,4.00
2022-11-21T03:05:17.517Z,4.00
2022-11-21T03:07:45.355Z,4.00
2022-11-21T03:10:12.422Z,3.90
2022-11-21T03:12:40.777Z,4.00
2022-11-21T03:15:10.017Z,4.00
2022-11-21T03:17:36.689Z,4.00
2022-11-21T03:20:04.487Z,4.00
2022-11-21T03:22:31.426Z,4.00
2022-11-21T03:24:58.105Z,4.00
2022-11-21T03:27:24.915Z,4.00
2022-11-21T03:29:51.587Z,4.00
2022-11-21T03:32:18.317Z,3.90
2022-11-21T03:34:45.080Z,3.90
2022-11-21T03:37:11.877Z,3.90
2022-11-21T03:39:38.559Z,3.80
2022-11-21T03:42:05.299Z,3.80
2022-11-21T03:44:31.947Z,3.80
2022-11-21T03:46:58.819Z,3.80
2022-11-21T03:49:25.461Z,3.80
2022-11-21T03:51:52.624Z,3.70
2022-11-21T03:54:19.268Z,3.70
2022-11-21T03:56:46.287Z,3.70
2022-11-21T03:59:13.005Z,3.70
2022-11-21T04:01:39.765Z,3.70
2022-11-21T04:04:06.463Z,3.70
2022-11-21T04:06:33.382Z,3.70
2022-11-21T04:09:00.093Z,3.70
2022-11-21T04:11:26.775Z,3.70
2022-11-21T04:13:53.495Z,3.70
2022-11-21T04:16:20.273Z,3.70
2022-11-21T04:18:47.349Z,3.70
2022-11-21T04:21:14.219Z,3.70
2022-11-21T04:23:40.904Z,3.70
2022-11-21T04:26:07.714Z,3.70
2022-11-21T04:28:34.466Z,3.80
2022-11-21T04:31:10.360Z,3.80
2022-11-21T04:33:37.860Z,3.80
2022-11-21T04:36:05.094Z,3.90
2022-11-21T04:38:31.889Z,3.90
2022-11-21T04:40:58.511Z,4.00
2022-11-21T04:43:25.235Z,4.00
2022-11-21T04:45:54.817Z,4.00
2022-11-21T04:48:21.699Z,4.10
2022-11-21T04:50:48.598Z,4.10
2022-11-21T04:53:15.342Z,4.20
2022-11-21T04:55:42.069Z,4.20
2022-11-21T04:58:08.850Z,4.20
2022-11-21T05:00:35.909Z,4.30
2022-11-21T05:03:06.703Z,4.30
2022-11-21T05:05:34.055Z,4.20
2022-11-21T05:08:00.726Z,4.20
2022-11-21T05:10:27.609Z,4.20
2022-11-21T05:13:19.610Z,4.10
2022-11-21T05:15:47.529Z,4.10
2022-11-21T05:18:14.174Z,4.00
2022-11-21T05:20:40.847Z,4.00
2022-11-21T05:23:07.530Z,3.90
2022-11-21T05:25:34.167Z,3.90
2022-11-21T05:28:00.841Z,3.80
2022-11-21T05:30:27.680Z,3.80
2022-11-21T05:32:54.470Z,3.70
2022-11-21T05:35:21.153Z,3.70
2022-11-21T05:37:47.810Z,3.80
2022-11-21T05:40:14.734Z,3.70
2022-11-21T05:43:01.555Z,3.80
2022-11-21T05:45:28.202Z,3.80
2022-11-21T05:47:54.922Z,3.80
2022-11-21T05:50:21.539Z,3.80
2022-11-21T05:52:48.276Z,3.80
2022-11-21T05:55:15.123Z,3.80
2022-11-21T05:57:41.767Z,3.80
2022-11-21T06:00:09.056Z,3.80
2022-11-21T06:02:54.638Z,3.80
2022-11-21T06:05:21.329Z,3.80
2022-11-21T06:07:48.039Z,3.80
2022-11-21T06:10:14.936Z,3.80
2022-11-21T06:12:41.587Z,3.80
2022-11-21T06:15:08.578Z,3.80
2022-11-21T06:17:35.217Z,3.80
2022-11-21T06:20:02.198Z,3.80
2022-11-21T06:22:28.947Z,3.90
2022-11-21T06:24:55.565Z,3.90
2022-11-21T06:27:22.325Z,3.90
2022-11-21T06:29:48.991Z,3.80
2022-11-21T06:32:15.778Z,3.80
2022-11-21T06:34:42.649Z,3.80
2022-11-21T06:37:09.306Z,3.80
2022-11-21T06:39:36.019Z,3.80
2022-11-21T06:42:02.724Z,3.80
2022-11-21T06:44:29.725Z,3.80
2022-11-21T06:46:56.722Z,3.80
2022-11-21T06:49:23.368Z,3.80
2022-11-21T06:51:50.054Z,3.80
2022-11-21T06:54:18.249Z,3.80
2022-11-21T06:56:44.927Z,3.90
2022-11-21T06:59:11.576Z,3.90
2022-11-21T07:01:38.348Z,3.90
2022-11-21T07:04:05.117Z,4.00
2022-11-21T07:06:31.863Z,4.00
2022-11-21T07:09:31.488Z,4.10
2022-11-21T07:11:45.206Z,4.10
2022-11-21T07:14:11.851Z,4.10
2022-11-21T07:16:38.834Z,4.20
2022-11-21T07:19:05.559Z,4.20
2022-11-21T07:21:32.411Z,4.20
2022-11-21T07:23:59.821Z,4.20
2022-11-21T07:26:26.449Z,4.20
2022-11-21T07:28:53.647Z,4.30
2022-11-21T07:31:20.285Z,4.30
2022-11-21T07:33:47.906Z,4.40
2022-11-21T07:36:14.907Z,4.40
2022-11-21T07:38:42.723Z,4.40
2022-11-21T07:41:09.790Z,4.30
2022-11-21T07:43:36.474Z,4.30
2022-11-21T07:46:03.219Z,4.30
2022-11-21T07:48:30.012Z,4.40
2022-11-21T07:50:56.615Z,4.40
2022-11-21T07:53:24.023Z,4.30
2022-11-21T07:55:50.669Z,4.30
2022-11-21T07:58:17.991Z,4.30
2022-11-21T08:00:44.731Z,4.30
2022-11-21T08:03:12.682Z,4.30
2022-11-21T08:05:43.808Z,4.20
2022-11-21T08:08:12.894Z,4.30
2022-11-21T08:10:41.994Z,4.30
2022-11-21T08:13:08.984Z,4.30
2022-11-21T08:15:36.383Z,4.40
2022-11-21T08:18:20.323Z,4.60
2022-11-21T08:20:47.423Z,4.70
2022-11-21T08:23:14.197Z,4.90
2022-11-21T08:25:42.134Z,4.90
2022-11-21T08:28:10.748Z,4.70
2022-11-21T08:30:38.151Z,4.60
2022-11-21T08:33:05.997Z,4.80
2022-11-21T08:35:32.689Z,4.80
2022-11-21T08:38:00.569Z,4.90
2022-11-21T08:40:29.420Z,5.00
2022-11-21T08:42:57.802Z,5.20
2022-11-21T08:45:24.987Z,5.20
2022-11-21T08:47:52.146Z,5.40
2022-11-21T08:50:18.994Z,5.60
2022-11-21T08:52:45.610Z,5.80
2022-11-21T08:55:12.670Z,5.90
2022-11-21T08:57:40.138Z,6.00
2022-11-21T09:00:07.899Z,6.00
2022-11-21T09:02:35.524Z,5.90
2022-11-21T09:05:02.201Z,5.60
2022-11-21T09:07:28.833Z,5.50
2022-11-21T09:09:55.526Z,5.30
2022-11-21T09:12:22.184Z,5.20
2022-11-21T09:15:07.639Z,5.40
2022-11-21T09:17:53.220Z,5.70
2022-11-21T09:20:19.929Z,5.80
2022-11-21T09:22:47.049Z,6.10
2022-11-21T09:25:13.851Z,6.20
2022-11-21T09:27:40.494Z,6.20
2022-11-21T09:30:07.637Z,6.20
2022-11-21T09:32:34.324Z,6.20
2022-11-21T09:35:00.986Z,6.40
2022-11-21T09:37:27.639Z,6.40
2022-11-21T09:39:54.244Z,6.40
2022-11-21T09:42:41.815Z,6.30
2022-11-21T09:45:18.551Z,6.40
2022-11-21T09:47:50.523Z,6.50
2022-11-21T09:50:30.956Z,6.60
2022-11-21T09:53:06.645Z,6.60
2022-11-21T09:55:43.094Z,6.50
2022-11-21T09:58:25.462Z,6.40
2022-11-21T10:00:53.426Z,6.20
2022-11-21T10:03:22.713Z,6.20
2022-11-21T10:05:58.142Z,6.30
2022-11-21T10:08:40.383Z,6.50
2022-11-21T10:11:20.135Z,6.60
2022-11-21T10:14:04.024Z,6.70
2022-11-21T10:17:01.216Z,6.80
2022-11-21T10:19:33.635Z,6.70
2022-11-21T10:22:24.708Z,6.60
2022-11-21T10:25:11.521Z,6.50
2022-11-21T10:27:50.341Z,6.40
2022-11-21T10:30:19.600Z,6.30
2022-11-21T10:32:50.834Z,6.30
2022-11-21T10:35:29.055Z,6.30
2022-11-21T10:38:01.592Z,6.40
2022-11-21T10:40:48.722Z,6.70
2022-11-21T10:43:50.271Z,7.10
2022-11-21T10:46:16.887Z,7.30
2022-11-21T10:48:53.491Z,7.40
2022-11-21T10:51:51.059Z,7.30
2022-11-21T10:54:32.717Z,7.40
2022-11-21T10:57:20.227Z,7.60
2022-11-21T11:00:11.276Z,7.90
2022-11-21T11:02:39.612Z,7.80
2022-11-21T11:05:28.704Z,7.70
2022-11-21T11:08:09.875Z,7.80
2022-11-21T11:10:38.662Z,8.10
2022-11-21T11:13:45.991Z,8.20
2022-11-21T11:16:17.180Z,8.20
2022-11-21T11:19:08.475Z,8.40
2022-11-21T11:21:41.276Z,8.00
2022-11-21T11:24:10.758Z,7.90
2022-11-21T11:26:49.577Z,7.70
2022-11-21T11:29:18.863Z,7.40
2022-11-21T11:32:10.428Z,7.10
2022-11-21T11:34:40.585Z,6.80
2022-11-21T11:37:17.299Z,6.80
2022-11-21T11:39:48.061Z,7.30
2022-11-21T11:42:48.407Z,7.80
2022-11-21T11:45:41.385Z,8.30
2022-11-21T11:48:12.631Z,8.30
2022-11-21T11:50:50.388Z,8.10
2022-11-21T11:53:35.034Z,7.80
2022-11-21T11:56:08.621Z,7.60
2022-11-21T11:58:54.359Z,7.50
2022-11-21T12:01:26.202Z,7.50
2022-11-21T12:04:10.985Z,7.40
2022-11-21T12:09:50.341Z,7.40
2022-11-21T12:12:36.586Z,7.30
2022-11-21T12:15:43.134Z,7.20
2022-11-21T12:18:15.329Z,7.10
2022-11-21T12:21:03.147Z,7.10
2022-11-21T12:23:41.767Z,7.10
2022-11-21T12:26:26.041Z,7.10
2022-11-21T12:29:23.568Z,7.10
2022-11-21T12:32:21.226Z,7.10
2022-11-21T12:35:08.271Z,7.50
2022-11-21T12:37:48.045Z,7.80
2022-11-21T12:40:45.496Z,7.80
2022-11-21T12:43:54.549Z,7.80
2022-11-21T12:46:31.650Z,7.80
2022-11-21T12:49:31.465Z,8.00
2022-11-21T12:52:31.909Z,8.10
2022-11-21T12:55:22.351Z,8.00
2022-11-21T12:57:56.690Z,7.70
2022-11-21T13:00:43.391Z,7.50
2022-11-21T13:03:33.411Z,7.30
2022-11-21T13:06:02.061Z,7.10
2022-11-21T13:08:31.829Z,7.10
2022-11-21T13:11:35.167Z,7.00
2022-11-21T13:14:13.581Z,6.90
2022-11-21T13:16:48.170Z,6.80
2022-11-21T13:19:36.892Z,6.70
2022-11-21T13:22:03.558Z,6.70
2022-11-21T13:24:45.517Z,6.70
2022-11-21T13:27:42.422Z,6.80
2022-11-21T13:30:09.580Z,6.90
2022-11-21T13:32:40.445Z,6.90
2022-11-21T13:35:19.346Z,7.00
2022-11-21T13:38:03.340Z,7.00
2022-11-21T13:40:29.992Z,7.10
2022-11-21T13:43:32.165Z,7.10
2022-11-21T13:45:58.427Z,7.10
2022-11-21T13:48:54.024Z,7.00
2022-11-21T13:51:48.592Z,7.00
2022-11-21T13:54:33.921Z,7.00
2022-11-21T13:57:09.353Z,6.80
2022-11-21T14:00:02.083Z,6.90
2022-11-21T14:03:06.410Z,7.00
2022-11-21T14:05:55.988Z,7.30
2022-11-21T14:08:25.624Z,7.50
2022-11-21T14:10:56.504Z,7.70
2022-11-21T14:13:37.103Z,7.70
2022-11-21T14:16:06.545Z,7.80
2022-11-21T14:18:33.671Z,7.70
2022-11-21T14:21:02.029Z,7.50
2022-11-21T14:23:31.568Z,7.20
2022-11-21T14:26:12.530Z,7.00
2022-11-21T14:28:39.292Z,7.00
2022-11-21T14:31:08.653Z,7.00
2022-11-21T14:33:37.814Z,7.00
2022-11-21T14:36:21.047Z,7.20
2022-11-21T14:41:48.524Z,7.10
2022-11-21T14:44:18.586Z,7.00
2022-11-21T14:46:47.390Z,6.90
2022-11-21T14:49:17.028Z,6.90
2022-11-21T14:51:48.216Z,6.70
2022-11-21T14:54:27.925Z,6.50
2022-11-21T14:56:58.180Z,6.30
2022-11-21T14:59:32.361Z,6.30
2022-11-21T15:02:11.086Z,6.10
2022-11-21T15:04:37.913Z,6.00
2022-11-21T15:07:05.244Z,5.90
2022-11-21T15:12:44.381Z,5.70
2022-11-21T15:15:21.207Z,5.60
2022-11-21T15:18:23.795Z,5.50
2022-11-21T15:20:39.748Z,5.40
2022-11-21T15:23:07.644Z,5.30
2022-11-21T15:25:47.464Z,5.20
2022-11-21T15:28:18.325Z,5.10
2022-11-21T15:30:45.507Z,5.00
2022-11-21T15:33:17.490Z,4.90
2022-11-21T15:38:44.239Z,4.80
2022-11-21T15:41:11.038Z,4.80
2022-11-21T15:44:00.529Z,4.70
2022-11-21T15:46:32.307Z,4.70
2022-11-21T15:49:06.288Z,4.60
2022-11-21T15:54:34.679Z,4.50
2022-11-21T15:57:01.317Z,4.40
2022-11-21T15:57:13.500Z,4.90
2022-11-21T15:59:28.301Z,4.30
2022-11-21T16:01:55.235Z,4.20
2022-11-21T16:04:25.541Z,4.10
2022-11-21T16:06:53.232Z,4.10
2022-11-21T16:09:19.910Z,4.00
2022-11-21T16:11:47.129Z,4.00
2022-11-21T16:14:15.756Z,3.90
2022-11-21T16:16:44.087Z,3.80
2022-11-21T16:19:14.850Z,3.80
2022-11-21T16:21:41.833Z,3.60
2022-11-21T16:24:08.792Z,3.60
2022-11-21T16:26:35.485Z,3.60
2022-11-21T16:29:06.626Z,3.50
2022-11-21T16:31:33.782Z,3.50
2022-11-21T16:34:00.861Z,3.40
2022-11-21T16:36:31.683Z,3.40
2022-11-21T16:39:07.833Z,3.50
2022-11-21T16:41:37.067Z,3.50
2022-11-21T16:44:03.843Z,3.50
2022-11-21T16:46:30.500Z,3.40
2022-11-21T16:49:05.060Z,3.30
2022-11-21T16:51:31.777Z,3.30
2022-11-21T16:54:01.705Z,3.20
2022-11-21T16:56:32.603Z,3.10
2022-11-21T16:58:59.227Z,3.10
2022-11-21T17:01:28.030Z,3.00
2022-11-21T17:03:54.743Z,3.00
2022-11-21T17:06:27.167Z,2.90
2022-11-21T17:08:54.143Z,2.90
2022-11-21T17:11:29.563Z,2.80
2022-11-21T17:13:58.938Z,2.80
2022-11-21T17:16:26.055Z,2.80
2022-11-21T17:19:01.183Z,2.80
2022-11-21T17:21:28.724Z,2.70
2022-11-21T17:23:55.388Z,2.70
2022-11-21T17:26:24.263Z,2.60
2022-11-21T17:28:52.497Z,2.60
2022-11-21T17:31:19.538Z,2.60
2022-11-21T17:33:51.346Z,2.60
2022-11-21T17:36:20.165Z,2.60
2022-11-21T17:38:47.869Z,2.60
2022-11-21T17:41:17.197Z,2.50
2022-11-21T17:43:44.745Z,2.50
2022-11-21T17:46:19.068Z,2.60
2022-11-21T17:48:51.497Z,2.60
2022-11-21T17:51:26.616Z,2.60
2022-11-21T17:53:53.600Z,2.70
2022-11-21T17:56:26.261Z,2.80
2022-11-21T17:58:53.042Z,2.80
2022-11-21T18:01:20.846Z,2.90
2022-11-21T18:03:53.074Z,2.90
2022-11-21T18:06:20.108Z,2.80
2022-11-21T18:08:48.289Z,2.90
2022-11-21T18:11:19.058Z,2.90
2022-11-21T18:13:46.069Z,2.90
2022-11-21T18:16:15.563Z,2.90
2022-11-21T18:18:42.844Z,2.90
2022-11-21T18:21:15.414Z,2.80
2022-11-21T18:23:43.834Z,2.70
2022-11-21T18:26:16.534Z,2.60
2022-11-21T18:28:43.365Z,2.60
2022-11-21T18:31:12.614Z,2.50
2022-11-21T18:33:40.224Z,2.50
2022-11-21T18:36:08.649Z,2.40
2022-11-21T18:38:49.239Z,2.40
2022-11-21T18:41:20.567Z,2.40
2022-11-21T18:43:52.817Z,2.40
2022-11-21T18:46:20.540Z,2.30
2022-11-21T18:49:02.197Z,2.20
2022-11-21T18:51:32.574Z,2.20
2022-11-21T18:54:05.239Z,2.20
2022-11-21T18:56:32.147Z,2.10
2022-11-21T18:58:59.552Z,2.10
2022-11-21T19:01:28.337Z,2.00
2022-11-21T19:03:56.176Z,2.00
2022-11-21T19:06:24.097Z,2.00
2022-11-21T19:08:55.608Z,1.90
2022-11-21T19:11:24.494Z,1.90
2022-11-21T19:13:52.411Z,1.80
2022-11-21T19:16:21.838Z,1.70
2022-11-21T19:19:11.559Z,1.70
2022-11-21T19:21:37.865Z,1.70
2022-11-21T19:24:06.671Z,1.70
2022-11-21T19:26:33.497Z,1.60
2022-11-21T19:29:00.262Z,1.60
2022-11-21T19:31:26.998Z,1.60
2022-11-21T19:33:54.091Z,1.50
2022-11-21T19:36:23.079Z,1.50
2022-11-21T19:38:51.568Z,1.60
2022-11-21T19:41:25.752Z,1.50
2022-11-21T19:43:54.822Z,1.50
2022-11-21T19:46:23.693Z,1.50
2022-11-21T19:48:53.493Z,1.40
2022-11-21T19:51:21.952Z,1.40
2022-11-21T19:53:48.895Z,1.40
2022-11-21T19:56:20.781Z,1.30
2022-11-21T19:58:48.549Z,1.40
2022-11-21T20:01:17.658Z,1.40
2022-11-21T20:03:46.734Z,1.40
2022-11-21T20:06:25.017Z,1.40
2022-11-21T20:09:06.798Z,1.40
2022-11-21T20:11:34.624Z,1.50
2022-11-21T20:14:01.713Z,1.50
2022-11-21T20:16:34.016Z,1.60
2022-11-21T20:19:03.143Z,1.60
2022-11-21T20:21:30.495Z,1.70
2022-11-21T20:23:57.519Z,1.80
2022-11-21T20:26:25.556Z,1.80
2022-11-21T20:28:53.162Z,1.90
2022-11-21T20:31:26.830Z,2.00
2022-11-21T20:33:57.394Z,2.00
2022-11-21T20:36:26.487Z,2.00
2022-11-21T20:39:00.950Z,2.10
2022-11-21T20:41:31.332Z,2.10
2022-11-21T20:46:47.953Z,2.10
2022-11-21T20:49:14.807Z,2.20
2022-11-21T20:54:30.407Z,2.20
2022-11-21T20:56:57.201Z,2.20
2022-11-21T20:59:25.175Z,2.20
2022-11-21T21:01:51.978Z,2.20
2022-11-21T21:04:18.775Z,2.20
2022-11-21T21:06:45.547Z,2.10
2022-11-21T21:09:12.194Z,2.10
2022-11-21T21:11:54.174Z,2.10
2022-11-21T21:14:24.125Z,2.10
2022-11-21T21:16:50.892Z,2.10
2022-11-21T21:19:18.418Z,2.10
2022-11-21T21:21:45.365Z,2.10
2022-11-21T21:24:12.898Z,2.10
2022-11-21T21:26:45.469Z,2.10
2022-11-21T21:29:14.733Z,2.10
2022-11-21T21:31:45.531Z,2.10
2022-11-21T21:34:16.555Z,2.10
2022-11-21T21:36:43.194Z,2.10
2022-11-21T21:39:09.953Z,2.10
2022-11-21T21:41:39.745Z,2.10
2022-11-21T21:44:06.756Z,2.10
2022-11-21T21:46:35.282Z,2.10
2022-11-21T21:49:02.122Z,2.10
2022-11-21T21:51:30.488Z,2.20
2022-11-21T21:53:59.004Z,2.20
2022-11-21T21:56:27.962Z,2.20
2022-11-21T21:58:57.107Z,2.20
2022-11-21T22:01:29.031Z,2.20
2022-11-21T22:03:58.256Z,2.20
2022-11-21T22:06:25.741Z,2.20
2022-11-21T22:08:53.829Z,2.20
2022-11-21T22:11:22.782Z,2.20
2022-11-21T22:13:55.216Z,2.10
2022-11-21T22:16:22.049Z,2.10
2022-11-21T22:18:48.941Z,2.10
2022-11-21T22:21:36.623Z,2.10
2022-11-21T22:24:30.848Z,2.10
2022-11-21T22:26:57.879Z,2.10
2022-11-21T22:29:24.829Z,2.10
2022-11-21T22:31:51.565Z,2.10
2022-11-21T22:34:18.264Z,2.10
2022-11-21T22:36:46.603Z,2.10
2022-11-21T22:39:13.457Z,2.10
2022-11-21T22:41:40.091Z,2.10
2022-11-21T22:44:06.802Z,2.00
2022-11-21T22:46:33.493Z,2.00
2022-11-21T22:49:00.253Z,2.00
2022-11-21T22:51:30.082Z,2.00
2022-11-21T22:53:57.405Z,2.00
2022-11-21T22:56:24.806Z,2.00
2022-11-21T22:58:51.901Z,2.00
2022-11-21T23:01:21.248Z,2.00
2022-11-21T23:03:49.177Z,2.00
2022-11-21T23:06:21.509Z,2.00
2022-11-21T23:08:48.924Z,2.00
2022-11-21T23:11:41.014Z,2.00
2022-11-21T23:14:08.135Z,2.00
2022-11-21T23:16:34.796Z,2.00
2022-11-21T23:19:01.994Z,2.00
2022-11-21T23:21:28.723Z,2.00
2022-11-21T23:23:55.323Z,2.00
2022-11-21T23:26:22.026Z,2.00
2022-11-21T23:28:48.731Z,2.00
2022-11-21T23:31:15.460Z,2.00
2022-11-21T23:33:42.205Z,2.00
2022-11-21T23:36:08.959Z,2.00
2022-11-21T23:38:35.615Z,2.00
2022-11-21T23:41:02.279Z,1.90
2022-11-21T23:43:28.921Z,1.80
2022-11-21T23:45:55.695Z,1.80
2022-11-21T23:48:24.084Z,1.80
2022-11-21T23:50:51.330Z,1.80
2022-11-21T23:53:19.171Z,1.90
2022-11-21T23:55:46.120Z,1.90
2022-11-21T23:58:13.251Z,1.90
